sensor_id;sensor_type;location;lat;lon;timestamp;temperature;humidity
72865;DHT22;61000;48.120;11.548;2023-04-25T00:00:27;8.10;99.90
72865;DHT22;61000;48.120;11.548;2023-04-25T00:02:54;8.10;99.90
72865;DHT22;61000;48.120;11.548;2023-04-25T00:05:22;8.10;99.90
72865;DHT22;61000;48.120;11.548;2023-04-25T00:07:50;8.10;99.90
72865;DHT22;61000;48.120;11.548;2023-04-25T00:10:17;8.10;99.90
72865;DHT22;61000;48.120;11.548;2023-04-25T00:12:43;8.10;99.90
72865;DHT22;61000;48.120;11.548;2023-04-25T00:15:11;8.10;99.90
72865;DHT22;61000;48.120;11.548;2023-04-25T00:17:39;8.10;99.90
72865;DHT22;61000;48.120;11.548;2023-04-25T00:20:07;8.20;99.90
72865;DHT22;61000;48.120;11.548;2023-04-25T00:22:35;8.10;99.90
72865;DHT22;61000;48.120;11.548;2023-04-25T00:25:03;8.20;99.90
72865;DHT22;61000;48.120;11.548;2023-04-25T00:27:30;8.10;99.90
72865;DHT22;61000;48.120;11.548;2023-04-25T00:29:57;8.20;99.90
72865;DHT22;61000;48.120;11.548;2023-04-25T00:32:25;8.20;99.90
72865;DHT22;61000;48.120;11.548;2023-04-25T00:34:54;8.20;99.90
72865;DHT22;61000;48.120;11.548;2023-04-25T00:37:21;8.30;99.90
72865;DHT22;61000;48.120;11.548;2023-04-25T00:39:48;8.20;99.90
72865;DHT22;61000;48.120;11.548;2023-04-25T00:42:15;8.20;99.90
72865;DHT22;61000;48.120;11.548;2023-04-25T00:44:42;8.20;99.90
72865;DHT22;61000;48.120;11.548;2023-04-25T00:47:11;8.20;99.90
72865;DHT22;61000;48.120;11.548;2023-04-25T00:49:38;8.20;99.90
72865;DHT22;61000;48.120;11.548;2023-04-25T00:52:06;8.20;99.90
72865;DHT22;61000;48.120;11.548;2023-04-25T00:54:33;8.20;99.90
72865;DHT22;61000;48.120;11.548;2023-04-25T00:57:00;8.10;99.90
72865;DHT22;61000;48.120;11.548;2023-04-25T00:59:28;8.10;99.90
72865;DHT22;61000;48.120;11.548;2023-04-25T01:01:55;8.20;99.90
72865;DHT22;61000;48.120;11.548;2023-04-25T01:04:22;8.10;99.90
72865;DHT22;61000;48.120;11.548;2023-04-25T01:06:49;8.10;99.90
72865;DHT22;61000;48.120;11.548;2023-04-25T01:09:18;8.00;99.90
72865;DHT22;61000;48.120;11.548;2023-04-25T01:11:46;8.00;99.90
72865;DHT22;61000;48.120;11.548;2023-04-25T01:14:13;8.00;99.90
72865;DHT22;61000;48.120;11.548;2023-04-25T01:16:40;7.90;99.90
72865;DHT22;61000;48.120;11.548;2023-04-25T01:19:09;7.90;99.90
72865;DHT22;61000;48.120;11.548;2023-04-25T01:21:39;8.00;99.90
72865;DHT22;61000;48.120;11.548;2023-04-25T01:24:06;7.90;99.90
72865;DHT22;61000;48.120;11.548;2023-04-25T01:26:34;7.90;99.90
72865;DHT22;61000;48.120;11.548;2023-04-25T01:29:01;7.90;99.90
72865;DHT22;61000;48.120;11.548;2023-04-25T01:31:30;7.90;99.90
72865;DHT22;61000;48.120;11.548;2023-04-25T01:33:59;7.80;99.90
72865;DHT22;61000;48.120;11.548;2023-04-25T01:36:28;7.80;99.90
72865;DHT22;61000;48.120;11.548;2023-04-25T01:38:57;7.80;99.90
72865;DHT22;61000;48.120;11.548;2023-04-25T01:41:24;7.80;99.90
72865;DHT22;61000;48.120;11.548;2023-04-25T01:43:51;7.80;99.90
72865;DHT22;61000;48.120;11.548;2023-04-25T01:46:18;7.80;99.90
72865;DHT22;61000;48.120;11.548;2023-04-25T01:48:45;7.80;99.90
72865;DHT22;61000;48.120;11.548;2023-04-25T01:51:13;7.70;99.90
72865;DHT22;61000;48.120;11.548;2023-04-25T01:53:41;7.70;99.90
72865;DHT22;61000;48.120;11.548;2023-04-25T01:56:10;7.70;99.90
72865;DHT22;61000;48.120;11.548;2023-04-25T01:58:38;7.70;99.90
72865;DHT22;61000;48.120;11.548;2023-04-25T02:01:05;7.60;99.90
72865;DHT22;61000;48.120;11.548;2023-04-25T02:03:40;7.60;99.90
72865;DHT22;61000;48.120;11.548;2023-04-25T02:06:12;7.60;99.90
72865;DHT22;61000;48.120;11.548;2023-04-25T02:08:42;7.60;99.90
72865;DHT22;61000;48.120;11.548;2023-04-25T02:11:12;7.60;99.90
72865;DHT22;61000;48.120;11.548;2023-04-25T02:13:49;7.60;99.90
72865;DHT22;61000;48.120;11.548;2023-04-25T02:16:55;7.50;99.90
72865;DHT22;61000;48.120;11.548;2023-04-25T02:19:22;7.50;99.90
72865;DHT22;61000;48.120;11.548;2023-04-25T02:21:49;7.50;99.90
72865;DHT22;61000;48.120;11.548;2023-04-25T02:24:16;7.50;99.90
72865;DHT22;61000;48.120;11.548;2023-04-25T02:26:44;7.50;99.90
72865;DHT22;61000;48.120;11.548;2023-04-25T02:29:12;7.50;99.90
72865;DHT22;61000;48.120;11.548;2023-04-25T02:31:41;7.50;99.90
72865;DHT22;61000;48.120;11.548;2023-04-25T02:34:08;7.50;99.90
72865;DHT22;61000;48.120;11.548;2023-04-25T02:36:37;7.50;99.90
72865;DHT22;61000;48.120;11.548;2023-04-25T02:39:04;7.60;99.90
72865;DHT22;61000;48.120;11.548;2023-04-25T02:41:31;7.50;99.90
72865;DHT22;61000;48.120;11.548;2023-04-25T02:43:59;7.50;99.90
72865;DHT22;61000;48.120;11.548;2023-04-25T02:46:26;7.50;99.90
72865;DHT22;61000;48.120;11.548;2023-04-25T02:48:53;7.50;99.90
72865;DHT22;61000;48.120;11.548;2023-04-25T02:51:20;7.50;99.90
72865;DHT22;61000;48.120;11.548;2023-04-25T02:53:47;7.50;99.90
72865;DHT22;61000;48.120;11.548;2023-04-25T02:56:14;7.50;99.90
72865;DHT22;61000;48.120;11.548;2023-04-25T02:58:41;7.50;99.90
72865;DHT22;61000;48.120;11.548;2023-04-25T03:01:09;7.60;99.90
72865;DHT22;61000;48.120;11.548;2023-04-25T03:03:36;7.60;99.90
72865;DHT22;61000;48.120;11.548;2023-04-25T03:06:03;7.70;99.90
72865;DHT22;61000;48.120;11.548;2023-04-25T03:08:32;7.60;99.90
72865;DHT22;61000;48.120;11.548;2023-04-25T03:11:01;7.60;99.90
72865;DHT22;61000;48.120;11.548;2023-04-25T03:13:28;7.70;99.90
72865;DHT22;61000;48.120;11.548;2023-04-25T03:15:56;7.70;99.90
72865;DHT22;61000;48.120;11.548;2023-04-25T03:18:24;7.70;99.90
72865;DHT22;61000;48.120;11.548;2023-04-25T03:20:51;7.70;99.90
72865;DHT22;61000;48.120;11.548;2023-04-25T03:23:18;7.60;99.90
72865;DHT22;61000;48.120;11.548;2023-04-25T03:25:45;7.70;99.90
72865;DHT22;61000;48.120;11.548;2023-04-25T03:28:12;7.50;99.90
72865;DHT22;61000;48.120;11.548;2023-04-25T03:30:39;7.50;99.90
72865;DHT22;61000;48.120;11.548;2023-04-25T03:33:06;7.50;99.90
72865;DHT22;61000;48.120;11.548;2023-04-25T03:35:34;7.60;99.90
72865;DHT22;61000;48.120;11.548;2023-04-25T03:38:01;7.50;99.90
72865;DHT22;61000;48.120;11.548;2023-04-25T03:40:33;7.50;99.90
72865;DHT22;61000;48.120;11.548;2023-04-25T03:43:17;7.40;99.90
72865;DHT22;61000;48.120;11.548;2023-04-25T03:45:51;7.40;99.90
72865;DHT22;61000;48.120;11.548;2023-04-25T03:48:20;7.40;99.90
72865;DHT22;61000;48.120;11.548;2023-04-25T03:50:52;7.50;99.90
72865;DHT22;61000;48.120;11.548;2023-04-25T03:53:18;7.30;99.90
72865;DHT22;61000;48.120;11.548;2023-04-25T03:56:11;7.30;99.90
72865;DHT22;61000;48.120;11.548;2023-04-25T03:58:39;7.20;99.90
72865;DHT22;61000;48.120;11.548;2023-04-25T04:01:07;7.20;99.90
72865;DHT22;61000;48.120;11.548;2023-04-25T04:03:36;7.20;99.90
72865;DHT22;61000;48.120;11.548;2023-04-25T04:06:06;7.10;99.90
72865;DHT22;61000;48.120;11.548;2023-04-25T04:08:40;7.10;99.90
72865;DHT22;61000;48.120;11.548;2023-04-25T04:11:08;7.10;99.90
72865;DHT22;61000;48.120;11.548;2023-04-25T04:13:36;7.10;99.90
72865;DHT22;61000;48.120;11.548;2023-04-25T04:16:03;7.10;99.90
72865;DHT22;61000;48.120;11.548;2023-04-25T04:18:30;7.10;99.90
72865;DHT22;61000;48.120;11.548;2023-04-25T04:20:58;7.00;99.90
72865;DHT22;61000;48.120;11.548;2023-04-25T04:23:29;7.00;99.90
72865;DHT22;61000;48.120;11.548;2023-04-25T04:25:57;7.00;99.90
72865;DHT22;61000;48.120;11.548;2023-04-25T04:28:43;7.00;99.90
72865;DHT22;61000;48.120;11.548;2023-04-25T04:31:36;6.90;99.90
72865;DHT22;61000;48.120;11.548;2023-04-25T04:34:07;7.00;99.90
72865;DHT22;61000;48.120;11.548;2023-04-25T04:36:38;7.00;99.90
72865;DHT22;61000;48.120;11.548;2023-04-25T04:39:10;6.90;99.90
72865;DHT22;61000;48.120;11.548;2023-04-25T04:42:03;7.00;99.90
72865;DHT22;61000;48.120;11.548;2023-04-25T04:45:04;6.90;99.90
72865;DHT22;61000;48.120;11.548;2023-04-25T04:47:48;7.00;99.90
72865;DHT22;61000;48.120;11.548;2023-04-25T04:50:37;7.20;99.90
72865;DHT22;61000;48.120;11.548;2023-04-25T04:53:23;7.00;99.90
72865;DHT22;61000;48.120;11.548;2023-04-25T04:55:58;6.90;99.90
72865;DHT22;61000;48.120;11.548;2023-04-25T04:58:48;7.00;99.90
72865;DHT22;61000;48.120;11.548;2023-04-25T05:01:42;7.00;99.90
72865;DHT22;61000;48.120;11.548;2023-04-25T05:04:08;7.00;99.90
72865;DHT22;61000;48.120;11.548;2023-04-25T05:07:10;7.00;99.90
72865;DHT22;61000;48.120;11.548;2023-04-25T05:10:00;7.10;99.90
72865;DHT22;61000;48.120;11.548;2023-04-25T05:12:35;7.10;99.90
72865;DHT22;61000;48.120;11.548;2023-04-25T05:15:37;7.10;99.90
72865;DHT22;61000;48.120;11.548;2023-04-25T05:18:18;7.30;99.90
72865;DHT22;61000;48.120;11.548;2023-04-25T05:20:55;7.20;99.90
72865;DHT22;61000;48.120;11.548;2023-04-25T05:23:36;7.10;99.90
72865;DHT22;61000;48.120;11.548;2023-04-25T05:26:20;7.10;99.90
72865;DHT22;61000;48.120;11.548;2023-04-25T05:29:12;7.10;99.90
72865;DHT22;61000;48.120;11.548;2023-04-25T05:31:58;7.10;99.90
72865;DHT22;61000;48.120;11.548;2023-04-25T05:34:25;7.20;99.90
72865;DHT22;61000;48.120;11.548;2023-04-25T05:37:01;7.20;99.90
72865;DHT22;61000;48.120;11.548;2023-04-25T05:39:35;7.20;99.90
72865;DHT22;61000;48.120;11.548;2023-04-25T05:42:33;7.20;99.90
72865;DHT22;61000;48.120;11.548;2023-04-25T05:45:20;7.30;99.90
72865;DHT22;61000;48.120;11.548;2023-04-25T05:48:05;7.30;99.90
72865;DHT22;61000;48.120;11.548;2023-04-25T05:50:58;7.30;99.90
72865;DHT22;61000;48.120;11.548;2023-04-25T05:53:49;7.30;99.90
72865;DHT22;61000;48.120;11.548;2023-04-25T05:56:16;7.30;99.90
72865;DHT22;61000;48.120;11.548;2023-04-25T05:58:45;7.30;99.90
72865;DHT22;61000;48.120;11.548;2023-04-25T06:01:14;7.30;99.90
72865;DHT22;61000;48.120;11.548;2023-04-25T06:03:42;7.10;99.90
72865;DHT22;61000;48.120;11.548;2023-04-25T06:06:10;6.90;99.90
72865;DHT22;61000;48.120;11.548;2023-04-25T06:11:05;6.40;99.90
72865;DHT22;61000;48.120;11.548;2023-04-25T06:13:32;6.30;99.90
72865;DHT22;61000;48.120;11.548;2023-04-25T06:15:59;6.30;99.90
72865;DHT22;61000;48.120;11.548;2023-04-25T06:18:28;6.20;99.90
72865;DHT22;61000;48.120;11.548;2023-04-25T06:20:55;6.20;99.90
72865;DHT22;61000;48.120;11.548;2023-04-25T06:23:23;6.10;99.90
72865;DHT22;61000;48.120;11.548;2023-04-25T06:25:53;6.10;99.90
72865;DHT22;61000;48.120;11.548;2023-04-25T06:28:20;6.10;99.90
72865;DHT22;61000;48.120;11.548;2023-04-25T06:30:48;6.20;99.90
72865;DHT22;61000;48.120;11.548;2023-04-25T06:33:18;6.20;99.90
72865;DHT22;61000;48.120;11.548;2023-04-25T06:35:47;6.30;99.90
72865;DHT22;61000;48.120;11.548;2023-04-25T06:38:17;6.40;99.90
72865;DHT22;61000;48.120;11.548;2023-04-25T06:40:48;6.50;99.90
72865;DHT22;61000;48.120;11.548;2023-04-25T06:43:16;6.60;99.90
72865;DHT22;61000;48.120;11.548;2023-04-25T06:46:01;6.60;99.90
72865;DHT22;61000;48.120;11.548;2023-04-25T06:48:31;6.60;99.90
72865;DHT22;61000;48.120;11.548;2023-04-25T06:50:59;6.60;99.90
72865;DHT22;61000;48.120;11.548;2023-04-25T06:53:27;6.80;99.90
72865;DHT22;61000;48.120;11.548;2023-04-25T06:55:58;6.90;99.90
72865;DHT22;61000;48.120;11.548;2023-04-25T06:58:32;7.00;99.90
72865;DHT22;61000;48.120;11.548;2023-04-25T07:01:09;7.10;99.90
72865;DHT22;61000;48.120;11.548;2023-04-25T07:03:37;7.30;99.90
72865;DHT22;61000;48.120;11.548;2023-04-25T07:06:09;7.30;99.90
72865;DHT22;61000;48.120;11.548;2023-04-25T07:08:36;7.30;99.90
72865;DHT22;61000;48.120;11.548;2023-04-25T07:11:03;7.30;99.90
72865;DHT22;61000;48.120;11.548;2023-04-25T07:13:30;7.40;99.90
72865;DHT22;61000;48.120;11.548;2023-04-25T07:15:57;7.40;99.90
72865;DHT22;61000;48.120;11.548;2023-04-25T07:18:24;7.40;99.90
72865;DHT22;61000;48.120;11.548;2023-04-25T07:20:51;7.40;99.90
72865;DHT22;61000;48.120;11.548;2023-04-25T07:23:20;7.40;99.90
72865;DHT22;61000;48.120;11.548;2023-04-25T07:25:47;7.50;99.90
72865;DHT22;61000;48.120;11.548;2023-04-25T07:28:19;7.60;99.90
72865;DHT22;61000;48.120;11.548;2023-04-25T07:30:47;7.70;99.90
72865;DHT22;61000;48.120;11.548;2023-04-25T07:33:17;7.90;99.90
72865;DHT22;61000;48.120;11.548;2023-04-25T07:35:45;8.00;99.90
72865;DHT22;61000;48.120;11.548;2023-04-25T07:38:13;8.10;99.90
72865;DHT22;61000;48.120;11.548;2023-04-25T07:40:41;8.20;99.90
72865;DHT22;61000;48.120;11.548;2023-04-25T07:43:10;8.40;99.90
72865;DHT22;61000;48.120;11.548;2023-04-25T07:45:47;8.50;99.90
72865;DHT22;61000;48.120;11.548;2023-04-25T07:48:17;8.60;99.90
72865;DHT22;61000;48.120;11.548;2023-04-25T07:50:46;8.70;99.90
72865;DHT22;61000;48.120;11.548;2023-04-25T07:53:13;8.70;99.90
72865;DHT22;61000;48.120;11.548;2023-04-25T07:55:48;8.70;99.90
72865;DHT22;61000;48.120;11.548;2023-04-25T07:58:17;8.70;99.90
72865;DHT22;61000;48.120;11.548;2023-04-25T08:00:48;8.80;99.90
72865;DHT22;61000;48.120;11.548;2023-04-25T08:03:30;8.90;99.90
72865;DHT22;61000;48.120;11.548;2023-04-25T08:05:58;9.00;99.90
72865;DHT22;61000;48.120;11.548;2023-04-25T08:08:27;9.20;99.90
72865;DHT22;61000;48.120;11.548;2023-04-25T08:10:56;9.30;99.90
72865;DHT22;61000;48.120;11.548;2023-04-25T08:13:23;9.30;99.90
72865;DHT22;61000;48.120;11.548;2023-04-25T08:15:50;9.40;99.90
72865;DHT22;61000;48.120;11.548;2023-04-25T08:18:18;9.70;99.90
72865;DHT22;61000;48.120;11.548;2023-04-25T08:20:47;9.90;99.90
72865;DHT22;61000;48.120;11.548;2023-04-25T08:23:15;10.00;99.90
72865;DHT22;61000;48.120;11.548;2023-04-25T08:26:10;10.10;99.90
72865;DHT22;61000;48.120;11.548;2023-04-25T08:28:38;10.10;99.90
72865;DHT22;61000;48.120;11.548;2023-04-25T08:31:05;10.30;99.90
72865;DHT22;61000;48.120;11.548;2023-04-25T08:33:41;10.20;99.90
72865;DHT22;61000;48.120;11.548;2023-04-25T08:36:19;10.30;99.90
72865;DHT22;61000;48.120;11.548;2023-04-25T08:38:46;10.10;99.90
72865;DHT22;61000;48.120;11.548;2023-04-25T08:41:19;10.10;99.90
72865;DHT22;61000;48.120;11.548;2023-04-25T08:43:49;10.00;99.90
72865;DHT22;61000;48.120;11.548;2023-04-25T08:46:18;9.90;99.90
72865;DHT22;61000;48.120;11.548;2023-04-25T08:49:05;9.80;99.90
72865;DHT22;61000;48.120;11.548;2023-04-25T08:51:32;9.70;99.90
72865;DHT22;61000;48.120;11.548;2023-04-25T08:54:09;9.80;99.70
72865;DHT22;61000;48.120;11.548;2023-04-25T08:56:41;10.00;99.50
72865;DHT22;61000;48.120;11.548;2023-04-25T09:02:58;10.20;97.70
72865;DHT22;61000;48.120;11.548;2023-04-25T09:05:29;10.50;97.20
72865;DHT22;61000;48.120;11.548;2023-04-25T09:07:56;10.40;95.10
72865;DHT22;61000;48.120;11.548;2023-04-25T09:10:23;10.50;95.40
72865;DHT22;61000;48.120;11.548;2023-04-25T09:13:04;10.40;95.40
72865;DHT22;61000;48.120;11.548;2023-04-25T09:15:50;10.90;95.40
72865;DHT22;61000;48.120;11.548;2023-04-25T09:18:37;11.30;94.50
72865;DHT22;61000;48.120;11.548;2023-04-25T09:21:06;12.00;93.30
72865;DHT22;61000;48.120;11.548;2023-04-25T09:23:39;13.10;92.00
72865;DHT22;61000;48.120;11.548;2023-04-25T09:26:07;13.90;90.30
72865;DHT22;61000;48.120;11.548;2023-04-25T09:28:36;14.40;85.40
72865;DHT22;61000;48.120;11.548;2023-04-25T09:31:03;14.60;83.80
72865;DHT22;61000;48.120;11.548;2023-04-25T09:33:36;13.90;84.50
72865;DHT22;61000;48.120;11.548;2023-04-25T09:36:06;13.30;87.10
72865;DHT22;61000;48.120;11.548;2023-04-25T09:38:51;12.90;86.00
72865;DHT22;61000;48.120;11.548;2023-04-25T09:41:29;12.40;88.20
72865;DHT22;61000;48.120;11.548;2023-04-25T09:44:01;12.20;88.80
72865;DHT22;61000;48.120;11.548;2023-04-25T09:46:34;12.20;90.00
72865;DHT22;61000;48.120;11.548;2023-04-25T09:49:06;11.90;90.60
72865;DHT22;61000;48.120;11.548;2023-04-25T09:51:41;12.30;91.10
72865;DHT22;61000;48.120;11.548;2023-04-25T09:54:09;12.10;89.30
72865;DHT22;61000;48.120;11.548;2023-04-25T09:56:48;12.10;88.70
72865;DHT22;61000;48.120;11.548;2023-04-25T09:59:20;11.90;89.40
72865;DHT22;61000;48.120;11.548;2023-04-25T10:01:48;11.90;89.70
72865;DHT22;61000;48.120;11.548;2023-04-25T10:04:28;11.90;90.20
72865;DHT22;61000;48.120;11.548;2023-04-25T10:07:19;11.90;90.50
72865;DHT22;61000;48.120;11.548;2023-04-25T10:09:58;11.90;91.10
72865;DHT22;61000;48.120;11.548;2023-04-25T10:12:26;11.70;91.80
72865;DHT22;61000;48.120;11.548;2023-04-25T10:14:55;11.80;92.10
72865;DHT22;61000;48.120;11.548;2023-04-25T10:17:23;11.80;92.00
72865;DHT22;61000;48.120;11.548;2023-04-25T10:19:51;12.40;91.80
72865;DHT22;61000;48.120;11.548;2023-04-25T10:22:25;13.20;90.10
72865;DHT22;61000;48.120;11.548;2023-04-25T10:24:53;13.50;87.30
72865;DHT22;61000;48.120;11.548;2023-04-25T10:27:22;13.70;86.70
72865;DHT22;61000;48.120;11.548;2023-04-25T10:30:02;13.40;85.80
72865;DHT22;61000;48.120;11.548;2023-04-25T10:32:33;13.30;86.30
72865;DHT22;61000;48.120;11.548;2023-04-25T10:35:14;13.00;86.10
72865;DHT22;61000;48.120;11.548;2023-04-25T10:38:02;12.70;89.30
72865;DHT22;61000;48.120;11.548;2023-04-25T10:40:35;12.10;91.60
72865;DHT22;61000;48.120;11.548;2023-04-25T10:43:33;10.90;93.80
72865;DHT22;61000;48.120;11.548;2023-04-25T10:46:03;10.40;94.50
72865;DHT22;61000;48.120;11.548;2023-04-25T10:48:45;10.20;96.30
72865;DHT22;61000;48.120;11.548;2023-04-25T10:51:16;10.10;95.70
72865;DHT22;61000;48.120;11.548;2023-04-25T10:53:44;10.00;95.80
72865;DHT22;61000;48.120;11.548;2023-04-25T10:56:12;10.00;95.80
72865;DHT22;61000;48.120;11.548;2023-04-25T10:58:43;9.90;95.80
72865;DHT22;61000;48.120;11.548;2023-04-25T11:01:13;9.90;96.40
72865;DHT22;61000;48.120;11.548;2023-04-25T11:03:41;10.00;97.40
72865;DHT22;61000;48.120;11.548;2023-04-25T11:06:20;9.80;98.60
72865;DHT22;61000;48.120;11.548;2023-04-25T11:08:50;9.60;98.80
72865;DHT22;61000;48.120;11.548;2023-04-25T11:11:19;9.60;98.80
72865;DHT22;61000;48.120;11.548;2023-04-25T11:13:48;9.50;98.40
72865;DHT22;61000;48.120;11.548;2023-04-25T11:16:17;9.60;98.40
72865;DHT22;61000;48.120;11.548;2023-04-25T11:18:44;9.80;97.80
72865;DHT22;61000;48.120;11.548;2023-04-25T11:21:13;9.80;97.10
72865;DHT22;61000;48.120;11.548;2023-04-25T11:23:40;9.90;96.20
72865;DHT22;61000;48.120;11.548;2023-04-25T11:26:07;9.90;95.10
72865;DHT22;61000;48.120;11.548;2023-04-25T11:28:33;9.90;95.20
72865;DHT22;61000;48.120;11.548;2023-04-25T11:31:02;10.00;95.00
72865;DHT22;61000;48.120;11.548;2023-04-25T11:33:32;9.80;95.00
72865;DHT22;61000;48.120;11.548;2023-04-25T11:35:59;9.70;95.60
72865;DHT22;61000;48.120;11.548;2023-04-25T11:38:26;9.70;96.30
72865;DHT22;61000;48.120;11.548;2023-04-25T11:40:53;9.70;96.80
72865;DHT22;61000;48.120;11.548;2023-04-25T11:43:21;9.80;97.40
72865;DHT22;61000;48.120;11.548;2023-04-25T11:45:49;9.90;97.60
72865;DHT22;61000;48.120;11.548;2023-04-25T11:48:16;9.80;97.90
72865;DHT22;61000;48.120;11.548;2023-04-25T11:50:45;9.70;98.80
72865;DHT22;61000;48.120;11.548;2023-04-25T11:53:12;9.70;99.90
72865;DHT22;61000;48.120;11.548;2023-04-25T11:55:43;9.30;99.90
72865;DHT22;61000;48.120;11.548;2023-04-25T11:58:10;9.20;99.90
72865;DHT22;61000;48.120;11.548;2023-04-25T12:00:46;9.10;99.90
72865;DHT22;61000;48.120;11.548;2023-04-25T12:03:24;9.00;99.90
72865;DHT22;61000;48.120;11.548;2023-04-25T12:06:03;9.00;99.90
72865;DHT22;61000;48.120;11.548;2023-04-25T12:08:30;9.10;99.90
72865;DHT22;61000;48.120;11.548;2023-04-25T12:10:58;8.90;99.90
72865;DHT22;61000;48.120;11.548;2023-04-25T12:13:26;8.90;99.90
72865;DHT22;61000;48.120;11.548;2023-04-25T12:15:57;8.80;99.90
72865;DHT22;61000;48.120;11.548;2023-04-25T12:18:24;8.90;99.90
72865;DHT22;61000;48.120;11.548;2023-04-25T12:20:53;8.80;99.90
72865;DHT22;61000;48.120;11.548;2023-04-25T12:23:26;8.80;99.90
72865;DHT22;61000;48.120;11.548;2023-04-25T12:25:54;8.80;99.90
72865;DHT22;61000;48.120;11.548;2023-04-25T12:28:23;8.60;99.90
72865;DHT22;61000;48.120;11.548;2023-04-25T12:30:54;8.60;99.90
72865;DHT22;61000;48.120;11.548;2023-04-25T12:33:21;8.70;99.90
72865;DHT22;61000;48.120;11.548;2023-04-25T12:35:48;8.70;99.90
72865;DHT22;61000;48.120;11.548;2023-04-25T12:38:21;8.70;99.90
72865;DHT22;61000;48.120;11.548;2023-04-25T12:40:49;8.70;99.90
72865;DHT22;61000;48.120;11.548;2023-04-25T12:43:16;8.70;99.90
72865;DHT22;61000;48.120;11.548;2023-04-25T12:45:44;8.70;99.90
72865;DHT22;61000;48.120;11.548;2023-04-25T12:48:10;8.40;99.90
72865;DHT22;61000;48.120;11.548;2023-04-25T12:50:37;8.30;99.90
72865;DHT22;61000;48.120;11.548;2023-04-25T12:53:06;8.30;99.90
72865;DHT22;61000;48.120;11.548;2023-04-25T12:55:34;8.50;99.90
72865;DHT22;61000;48.120;11.548;2023-04-25T12:58:02;8.50;99.90
72865;DHT22;61000;48.120;11.548;2023-04-25T13:00:29;8.50;99.90
72865;DHT22;61000;48.120;11.548;2023-04-25T13:02:57;8.30;99.90
72865;DHT22;61000;48.120;11.548;2023-04-25T13:05:25;8.30;99.90
72865;DHT22;61000;48.120;11.548;2023-04-25T13:07:51;8.00;99.90
72865;DHT22;61000;48.120;11.548;2023-04-25T13:10:18;8.00;99.90
72865;DHT22;61000;48.120;11.548;2023-04-25T13:12:45;8.10;99.90
72865;DHT22;61000;48.120;11.548;2023-04-25T13:15:14;8.10;99.90
72865;DHT22;61000;48.120;11.548;2023-04-25T13:17:42;8.20;99.90
72865;DHT22;61000;48.120;11.548;2023-04-25T13:20:09;8.30;99.90
72865;DHT22;61000;48.120;11.548;2023-04-25T13:22:37;8.20;99.90
72865;DHT22;61000;48.120;11.548;2023-04-25T13:25:05;8.30;99.90
72865;DHT22;61000;48.120;11.548;2023-04-25T13:27:33;8.40;99.90
72865;DHT22;61000;48.120;11.548;2023-04-25T13:30:02;8.40;99.90
72865;DHT22;61000;48.120;11.548;2023-04-25T13:32:35;8.40;99.90
72865;DHT22;61000;48.120;11.548;2023-04-25T13:35:03;8.40;99.90
72865;DHT22;61000;48.120;11.548;2023-04-25T13:37:30;8.40;99.90
72865;DHT22;61000;48.120;11.548;2023-04-25T13:39:59;8.40;99.90
72865;DHT22;61000;48.120;11.548;2023-04-25T13:42:28;8.40;99.90
72865;DHT22;61000;48.120;11.548;2023-04-25T13:44:55;8.40;99.90
72865;DHT22;61000;48.120;11.548;2023-04-25T13:47:22;8.30;99.90
72865;DHT22;61000;48.120;11.548;2023-04-25T13:49:51;8.00;99.90
72865;DHT22;61000;48.120;11.548;2023-04-25T13:52:18;7.90;99.90
72865;DHT22;61000;48.120;11.548;2023-04-25T13:54:45;7.80;99.90
72865;DHT22;61000;48.120;11.548;2023-04-25T13:57:12;7.90;99.90
72865;DHT22;61000;48.120;11.548;2023-04-25T13:59:39;7.70;99.90
72865;DHT22;61000;48.120;11.548;2023-04-25T14:02:07;7.70;99.90
72865;DHT22;61000;48.120;11.548;2023-04-25T14:04:35;7.70;99.90
72865;DHT22;61000;48.120;11.548;2023-04-25T14:07:04;7.80;99.90
72865;DHT22;61000;48.120;11.548;2023-04-25T14:09:31;7.80;99.90
72865;DHT22;61000;48.120;11.548;2023-04-25T14:11:58;7.50;99.90
72865;DHT22;61000;48.120;11.548;2023-04-25T14:14:25;7.40;99.90
72865;DHT22;61000;48.120;11.548;2023-04-25T14:16:53;7.20;99.90
72865;DHT22;61000;48.120;11.548;2023-04-25T14:19:20;7.20;99.90
72865;DHT22;61000;48.120;11.548;2023-04-25T14:21:47;7.10;99.90
72865;DHT22;61000;48.120;11.548;2023-04-25T14:24:16;7.20;99.90
72865;DHT22;61000;48.120;11.548;2023-04-25T14:26:46;7.30;99.90
72865;DHT22;61000;48.120;11.548;2023-04-25T14:29:13;7.40;99.90
72865;DHT22;61000;48.120;11.548;2023-04-25T14:31:40;7.50;99.90
72865;DHT22;61000;48.120;11.548;2023-04-25T14:34:07;7.70;99.90
72865;DHT22;61000;48.120;11.548;2023-04-25T14:36:35;7.80;99.90
72865;DHT22;61000;48.120;11.548;2023-04-25T14:39:02;8.00;99.90
72865;DHT22;61000;48.120;11.548;2023-04-25T14:41:32;8.10;99.90
72865;DHT22;61000;48.120;11.548;2023-04-25T14:43:59;8.20;99.90
72865;DHT22;61000;48.120;11.548;2023-04-25T14:46:26;8.10;99.90
72865;DHT22;61000;48.120;11.548;2023-04-25T14:48:53;8.20;99.90
72865;DHT22;61000;48.120;11.548;2023-04-25T14:51:21;8.50;99.90
72865;DHT22;61000;48.120;11.548;2023-04-25T14:53:48;8.50;99.90
72865;DHT22;61000;48.120;11.548;2023-04-25T14:56:15;8.60;99.90
72865;DHT22;61000;48.120;11.548;2023-04-25T14:58:44;8.50;99.90
72865;DHT22;61000;48.120;11.548;2023-04-25T15:01:11;8.60;99.90
72865;DHT22;61000;48.120;11.548;2023-04-25T15:03:38;8.50;99.90
72865;DHT22;61000;48.120;11.548;2023-04-25T15:06:12;8.50;99.90
72865;DHT22;61000;48.120;11.548;2023-04-25T15:08:46;8.50;99.90
72865;DHT22;61000;48.120;11.548;2023-04-25T15:11:13;8.50;99.90
72865;DHT22;61000;48.120;11.548;2023-04-25T15:13:40;8.60;99.90
72865;DHT22;61000;48.120;11.548;2023-04-25T15:16:08;8.50;99.90
72865;DHT22;61000;48.120;11.548;2023-04-25T15:18:49;8.40;99.90
72865;DHT22;61000;48.120;11.548;2023-04-25T15:21:15;8.30;99.90
72865;DHT22;61000;48.120;11.548;2023-04-25T15:23:42;8.30;99.90
72865;DHT22;61000;48.120;11.548;2023-04-25T15:26:09;8.20;99.90
72865;DHT22;61000;48.120;11.548;2023-04-25T15:28:36;8.20;99.90
72865;DHT22;61000;48.120;11.548;2023-04-25T15:31:03;8.30;99.90
72865;DHT22;61000;48.120;11.548;2023-04-25T15:33:32;8.20;99.90
72865;DHT22;61000;48.120;11.548;2023-04-25T15:35:59;8.30;99.90
72865;DHT22;61000;48.120;11.548;2023-04-25T15:38:28;8.40;99.90
72865;DHT22;61000;48.120;11.548;2023-04-25T15:40:55;8.50;99.90
72865;DHT22;61000;48.120;11.548;2023-04-25T15:43:22;8.60;99.90
72865;DHT22;61000;48.120;11.548;2023-04-25T15:45:49;8.90;99.90
72865;DHT22;61000;48.120;11.548;2023-04-25T15:48:16;8.80;99.90
72865;DHT22;61000;48.120;11.548;2023-04-25T15:50:44;8.80;99.90
72865;DHT22;61000;48.120;11.548;2023-04-25T15:53:12;8.70;99.90
72865;DHT22;61000;48.120;11.548;2023-04-25T15:55:38;8.70;99.90